LFLL Airport Information

Runway Information
Runway 18L Length 8760 ft width 148 ft
Elevation 780 ft Threshold 0 ft Heading 175
Runway 36R Length 8760 ft Width 148 ft
Elevation 821 ft Threshold 0 ft Heading 355
Runway 18R Length 13124 ft width 148 ft
Elevation 758 ft Threshold 0 ft Heading 175
Runway 36L Length 13124 ft Width 148 ft
Elevation 813 ft Threshold 0 ft Heading 355
Airport Frequencies
Type A/D Name Lyon appro Frequency 136.075 MHZ
Type ATIS Name ATIS Frequency 126.175 MHZ
Type GND Name GND Frequency 121.825 MHZ
Type INFO Name INFO Frequency 135.2 MHZ
Type PFLT Name PREFLIGHT Frequency 121.7 MHZ
Type TWR Name TWR Frequency 120.45 MHZ
Airport Navaids
Type VOR-DME Name Lyon/Saint Exupery Frequency 114750 KHZ
Airport Weather Information & NOTAM
ADDS - METARS form results

(0435 UTC 04 July 2020)
Data provider http://aviationweather.gov/metar/data/
 
METAR text: LFLL 040430Z 00000KT CAVOK 14/10 Q1022 NOSIG
Conditions at: LFLL (LYON/SATOLAS , FR) observed 0430 UTC 04 July 2020
Temperature: 14.0°C (57°F)
Dewpoint: 10.0°C (50°F) [RH = 77%]
Pressure (altimeter): 30.18 inches Hg (1022.0 mb)
Winds: calm
Visibility: 6 or more miles (10+ km)
Ceiling: ceiling and visibility are OK
Clouds: unknown
Weather: no significant weather observed at this time

METAR text: LFLL 040400Z 00000KT CAVOK 13/10 Q1022 NOSIG
Conditions at: LFLL (LYON/SATOLAS , FR) observed 0400 UTC 04 July 2020
Temperature: 13.0°C (55°F)
Dewpoint: 10.0°C (50°F) [RH = 82%]
Pressure (altimeter): 30.18 inches Hg (1022.0 mb)
Winds: calm
Visibility: 6 or more miles (10+ km)
Ceiling: ceiling and visibility are OK
Clouds: unknown
Weather: no significant weather observed at this time

Forecast for: LFLL (LYON/SATOLAS , FR)
Text: TAF LFLL 032300Z 0400/0506 VRB03KT CAVOK
Forecast period: 0000 to 0700 UTC 04 July 2020
Forecast type: FROM: standard forecast or significant change
Winds: variable direction winds at 3 MPH (3 knots; 1.5 m/s)
Visibility: 6 or more miles 10+ km)
Ceiling: unknown
Clouds: missing
Weather: NSW  (no significant weather)
Text: BECMG 0407/0409 36008KT
Forecast period: 0700 to 2000 UTC 04 July 2020
Forecast type: BECOMING: Conditions expected to become as follows by 0900 UTC 04 July 2020
Winds: from the N (360 degrees) at 9 MPH (8 knots; 4.1 m/s)
Visibility: 6 or more miles 10+ km)
Ceiling: unknown
Clouds: missing
Weather: NSW  (no significant weather)
Text: BECMG 0420/0422 VRB02KT
Forecast period: 2000 UTC 04 July 2020 to 0600 UTC 05 July 2020
Forecast type: BECOMING: Conditions expected to become as follows by 2200 UTC 04 July 2020
Winds: variable direction winds at 2 MPH (2 knots; 1.0 m/s)
Visibility: 6 or more miles 10+ km)
Ceiling: unknown
Clouds: missing
Weather: NSW  (no significant weather)